Time;durP1;ratioP1;P1;durP2;ratioP2;P2;SDS_P1;SDS_P2;PMS_P1;PMS_P2;Temp;Humidity;BMP_temperature;BMP_pressure;BME280_temperature;BME280_humidity;BME280_pressure;Samples;Min_cycle;Max_cycle;Signal;HPM_P1;HPM_P2
2021/09/15 00:00:41;;;;;;;10.77;9.70;;;19.80;99.90;;;;;;6125889;23;20397;-70
2021/09/15 00:03:08;;;;;;;9.87;8.50;;;19.80;99.90;;;;;;6126664;23;20951;-70
2021/09/15 00:05:35;;;;;;;9.50;8.03;;;19.90;99.90;;;;;;6126143;23;20485;-70
2021/09/15 00:08:02;;;;;;;9.73;8.80;;;19.90;99.90;;;;;;6125073;23;20495;-70
2021/09/15 00:10:30;;;;;;;10.50;9.50;;;19.90;99.90;;;;;;6126950;23;20405;-70
2021/09/15 00:12:57;;;;;;;9.63;8.63;;;19.80;99.90;;;;;;6127244;23;20436;-70
2021/09/15 00:15:24;;;;;;;9.60;8.70;;;19.80;99.90;;;;;;6127150;23;20892;-70
2021/09/15 00:17:52;;;;;;;11.23;10.13;;;19.80;99.90;;;;;;6126249;23;20508;-70
2021/09/15 00:20:21;;;;;;;9.70;8.80;;;19.80;99.90;;;;;;6127281;23;20433;-70
2021/09/15 00:22:48;;;;;;;10.60;9.57;;;19.80;99.90;;;;;;6126251;23;20448;-71
2021/09/15 00:25:15;;;;;;;10.50;8.87;;;19.80;99.90;;;;;;6127077;23;20398;-72
2021/09/15 00:27:42;;;;;;;12.03;10.90;;;19.80;99.90;;;;;;6125638;23;20394;-71
2021/09/15 00:30:11;;;;;;;12.07;11.00;;;19.70;99.90;;;;;;6126765;23;20627;-70
2021/09/15 00:32:38;;;;;;;11.27;10.27;;;19.70;99.90;;;;;;6126421;23;20433;-70
2021/09/15 00:35:09;;;;;;;10.30;9.30;;;19.70;99.90;;;;;;6126581;23;20382;-71
2021/09/15 00:37:36;;;;;;;11.00;9.90;;;19.70;99.90;;;;;;6126060;23;20741;-70
2021/09/15 00:40:06;;;;;;;11.53;10.00;;;19.70;99.90;;;;;;6126548;23;20429;-70
2021/09/15 00:42:33;;;;;;;11.37;10.37;;;19.70;99.90;;;;;;6126706;23;20498;-70
2021/09/15 00:45:01;;;;;;;10.60;9.50;;;19.70;99.90;;;;;;6126340;23;20392;-69
2021/09/15 00:47:28;;;;;;;11.33;10.37;;;19.60;99.90;;;;;;6125838;23;20682;-71
2021/09/15 00:49:55;;;;;;;13.00;10.90;;;19.60;99.90;;;;;;6126541;23;20469;-69
2021/09/15 00:52:25;;;;;;;11.80;10.80;;;19.70;99.90;;;;;;6125918;23;20436;-69
2021/09/15 00:54:53;;;;;;;12.17;11.00;;;19.70;99.90;;;;;;6126707;23;20490;-68
2021/09/15 00:57:21;;;;;;;12.33;11.33;;;19.60;99.90;;;;;;6126010;23;20440;-69
2021/09/15 00:59:48;;;;;;;12.13;11.00;;;19.50;99.90;;;;;;6126100;23;20390;-69
2021/09/15 01:02:15;;;;;;;12.57;11.27;;;19.50;99.90;;;;;;6124356;23;20429;-69
2021/09/15 01:04:43;;;;;;;13.40;10.93;;;19.40;99.90;;;;;;6126624;23;20881;-69
2021/09/15 01:07:11;;;;;;;12.50;11.30;;;19.40;99.90;;;;;;6125362;23;20394;-69
2021/09/15 01:09:40;;;;;;;13.00;11.77;;;19.50;99.90;;;;;;6126168;23;20402;-69
2021/09/15 01:12:12;;;;;;;11.07;10.13;;;19.50;99.90;;;;;;6126075;23;20433;-70
2021/09/15 01:14:40;;;;;;;13.70;10.43;;;19.40;99.90;;;;;;6125673;23;20447;-69
2021/09/15 01:17:09;;;;;;;12.37;10.50;;;19.50;99.90;;;;;;6125644;23;20457;-70
2021/09/15 01:19:37;;;;;;;10.90;9.87;;;19.50;99.90;;;;;;6126098;23;20398;-71
2021/09/15 01:22:05;;;;;;;12.27;11.07;;;19.50;99.90;;;;;;6125737;23;20437;-70
2021/09/15 01:24:34;;;;;;;12.63;11.37;;;19.40;99.90;;;;;;6126131;23;20401;-70
2021/09/15 01:27:01;;;;;;;12.63;11.37;;;19.40;99.90;;;;;;6125788;23;20386;-71
2021/09/15 01:29:31;;;;;;;12.23;11.13;;;19.40;99.90;;;;;;6125834;23;20404;-70
2021/09/15 01:32:01;;;;;;;14.57;11.07;;;19.40;99.90;;;;;;6125839;23;20479;-70
2021/09/15 01:34:29;;;;;;;13.43;12.07;;;19.40;99.90;;;;;;6125253;23;20398;-71
2021/09/15 01:36:56;;;;;;;12.70;11.50;;;19.40;99.90;;;;;;6125115;23;20557;-70
2021/09/15 01:39:25;;;;;;;11.77;10.53;;;19.40;99.90;;;;;;6126083;23;20393;-68
2021/09/15 01:41:56;;;;;;;12.20;10.53;;;19.40;99.90;;;;;;6125655;23;20813;-70
2021/09/15 01:44:31;;;;;;;12.53;11.27;;;19.40;99.90;;;;;;6126324;23;20402;-70
2021/09/15 01:47:00;;;;;;;11.73;10.67;;;19.40;99.90;;;;;;6124753;23;20445;-71
2021/09/15 01:49:28;;;;;;;15.10;12.40;;;19.40;99.90;;;;;;6126288;23;20740;-71
2021/09/15 01:51:56;;;;;;;14.03;12.50;;;19.40;99.90;;;;;;6125244;23;20500;-70
2021/09/15 01:54:24;;;;;;;13.53;12.20;;;19.30;99.90;;;;;;6125831;23;20880;-70
2021/09/15 01:56:52;;;;;;;11.87;10.87;;;19.30;99.90;;;;;;6125379;23;20727;-70
2021/09/15 01:59:19;;;;;;;14.27;12.93;;;19.30;99.90;;;;;;6125722;23;20865;-70
2021/09/15 02:01:47;;;;;;;12.20;11.10;;;19.20;99.90;;;;;;6125910;23;20742;-70
2021/09/15 02:04:14;;;;;;;13.10;11.90;;;19.20;99.90;;;;;;6125537;23;20402;-71
2021/09/15 02:06:42;;;;;;;14.13;12.83;;;19.20;99.90;;;;;;6125293;23;20397;-70
2021/09/15 02:09:09;;;;;;;15.97;14.37;;;19.20;99.90;;;;;;6125903;23;20497;-70
2021/09/15 02:11:40;;;;;;;13.53;12.00;;;19.30;99.90;;;;;;6126373;23;20436;-70
2021/09/15 02:14:07;;;;;;;12.90;11.60;;;19.30;99.90;;;;;;6126387;23;20746;-70
2021/09/15 02:16:35;;;;;;;13.30;12.10;;;19.20;99.90;;;;;;6125439;23;20398;-70
2021/09/15 02:19:03;;;;;;;18.03;13.50;;;19.20;99.90;;;;;;6125338;23;20441;-71
2021/09/15 02:21:31;;;;;;;13.90;12.40;;;19.20;99.90;;;;;;6125949;23;20445;-70
2021/09/15 02:23:58;;;;;;;13.23;12.03;;;19.20;99.90;;;;;;6126310;23;20397;-71
2021/09/15 02:26:28;;;;;;;13.40;12.10;;;19.20;99.90;;;;;;6124755;23;20869;-70
2021/09/15 02:28:57;;;;;;;13.67;12.33;;;19.20;99.90;;;;;;6126365;23;20429;-70
2021/09/15 02:31:26;;;;;;;14.60;12.67;;;19.30;99.90;;;;;;6125627;23;20425;-70
2021/09/15 02:33:53;;;;;;;13.27;11.97;;;19.30;99.90;;;;;;6127833;23;20398;-70
2021/09/15 02:36:21;;;;;;;13.30;12.00;;;19.30;99.90;;;;;;6127781;23;20394;-70
2021/09/15 02:38:51;;;;;;;14.37;12.97;;;19.30;99.90;;;;;;6127275;23;20738;-69
2021/09/15 02:41:19;;;;;;;14.40;13.03;;;19.20;99.90;;;;;;6127698;23;20441;-69
2021/09/15 02:43:46;;;;;;;13.27;12.07;;;19.30;99.90;;;;;;6126496;23;20392;-68
2021/09/15 02:46:21;;;;;;;13.70;12.50;;;19.20;99.90;;;;;;6127944;23;20404;-70
2021/09/15 02:48:48;;;;;;;13.93;12.63;;;19.20;99.90;;;;;;6128283;23;20883;-70
2021/09/15 02:51:15;;;;;;;17.30;14.63;;;19.00;99.90;;;;;;6127978;23;20429;-68
2021/09/15 02:53:42;;;;;;;13.50;12.13;;;19.10;99.90;;;;;;6128027;23;20389;-69
2021/09/15 02:56:09;;;;;;;16.27;14.77;;;19.10;99.90;;;;;;6128055;23;20877;-68
2021/09/15 02:58:37;;;;;;;14.47;13.07;;;19.00;99.90;;;;;;6127971;23;20437;-69
2021/09/15 03:01:06;;;;;;;14.23;12.93;;;19.00;99.90;;;;;;6127653;23;20385;-69
2021/09/15 03:03:35;;;;;;;17.20;15.57;;;18.90;99.90;;;;;;6127940;23;20393;-69
2021/09/15 03:06:05;;;;;;;15.30;13.80;;;18.90;99.90;;;;;;6128154;23;20405;-69
2021/09/15 03:08:34;;;;;;;14.70;13.40;;;18.90;99.90;;;;;;6127690;23;20415;-70
2021/09/15 03:11:02;;;;;;;18.60;13.60;;;18.90;99.90;;;;;;6127405;23;20914;-70
2021/09/15 03:13:29;;;;;;;16.90;15.30;;;18.90;99.90;;;;;;6128122;23;20400;-70
2021/09/15 03:15:56;;;;;;;17.43;13.53;;;18.90;99.90;;;;;;6127610;23;20887;-69
2021/09/15 03:18:23;;;;;;;14.17;13.00;;;18.90;99.90;;;;;;6126622;23;20436;-69
2021/09/15 03:20:52;;;;;;;13.80;12.60;;;18.80;99.90;;;;;;6127039;23;20393;-70
2021/09/15 03:23:19;;;;;;;15.73;14.10;;;18.90;99.90;;;;;;6127131;23;20452;-70
2021/09/15 03:25:46;;;;;;;15.43;14.00;;;18.90;99.90;;;;;;6127285;23;20488;-69
2021/09/15 03:28:14;;;;;;;14.90;13.50;;;18.90;99.90;;;;;;6126560;23;20401;-70
2021/09/15 03:30:41;;;;;;;14.23;13.03;;;19.00;99.90;;;;;;6127138;23;20432;-70
2021/09/15 03:33:08;;;;;;;15.87;14.43;;;19.00;99.90;;;;;;6127122;23;20433;-70
2021/09/15 03:35:37;;;;;;;14.77;13.30;;;19.00;99.90;;;;;;6127343;23;20397;-69
2021/09/15 03:38:06;;;;;;;15.53;14.20;;;19.00;99.90;;;;;;6126081;23;20433;-70
2021/09/15 03:40:33;;;;;;;16.80;13.73;;;19.10;99.90;;;;;;6126888;23;20866;-69
2021/09/15 03:43:00;;;;;;;14.80;13.30;;;19.10;99.90;;;;;;6127149;23;20429;-70
2021/09/15 03:45:28;;;;;;;15.43;13.93;;;19.10;99.90;;;;;;6127461;23;20404;-70
2021/09/15 03:47:57;;;;;;;16.43;14.80;;;19.10;99.90;;;;;;6127190;23;20500;-69
2021/09/15 03:50:24;;;;;;;14.73;13.23;;;19.10;99.90;;;;;;6127714;23;20420;-69
2021/09/15 03:52:51;;;;;;;14.30;12.90;;;19.10;99.90;;;;;;6126764;23;20429;-70
2021/09/15 03:55:20;;;;;;;16.73;15.13;;;19.10;99.90;;;;;;6127195;23;20402;-69
2021/09/15 03:57:47;;;;;;;17.13;15.63;;;19.10;99.90;;;;;;6125824;23;20434;-69
2021/09/15 04:00:15;;;;;;;15.80;12.97;;;19.10;99.90;;;;;;6126754;23;20394;-69
2021/09/15 04:02:42;;;;;;;16.90;15.27;;;19.10;99.90;;;;;;6126931;23;20432;-70
2021/09/15 04:05:09;;;;;;;17.10;15.27;;;19.00;99.90;;;;;;6126776;23;20396;-70
2021/09/15 04:07:39;;;;;;;16.53;14.80;;;18.90;99.90;;;;;;6126074;23;20397;-70
2021/09/15 04:10:07;;;;;;;16.00;14.47;;;18.90;99.90;;;;;;6126197;23;20429;-70
2021/09/15 04:12:37;;;;;;;15.43;13.97;;;18.80;99.90;;;;;;6126487;23;20436;-70
2021/09/15 04:15:05;;;;;;;17.47;15.33;;;18.80;99.90;;;;;;6127006;23;20409;-70
2021/09/15 04:17:32;;;;;;;19.77;16.03;;;18.70;99.90;;;;;;6126070;23;20396;-69
2021/09/15 04:19:59;;;;;;;16.47;14.87;;;18.70;99.90;;;;;;6126821;23;20394;-70
2021/09/15 04:22:26;;;;;;;18.17;16.47;;;18.70;99.90;;;;;;6125583;23;20429;-69
2021/09/15 04:33:09;;;;;;;19.43;16.53;;;18.70;99.90;;;;;;6126181;23;20507;-69
2021/09/15 04:35:36;;;;;;;18.07;16.17;;;18.60;99.90;;;;;;6126481;23;20760;-69
2021/09/15 04:38:03;;;;;;;16.73;15.07;;;18.60;99.90;;;;;;6124971;23;20436;-70
2021/09/15 04:40:34;;;;;;;19.87;15.67;;;18.60;99.90;;;;;;6126649;23;20401;-69
2021/09/15 04:43:03;;;;;;;17.27;15.67;;;18.60;99.90;;;;;;6125678;23;20433;-70
2021/09/15 04:45:30;;;;;;;18.27;16.53;;;18.60;99.90;;;;;;6125516;23;20744;-70
2021/09/15 04:47:57;;;;;;;18.70;16.90;;;18.70;99.90;;;;;;6125577;23;20475;-70
2021/09/15 04:50:24;;;;;;;16.57;14.97;;;18.70;99.90;;;;;;6125975;23;20451;-71
2021/09/15 04:52:52;;;;;;;15.80;14.20;;;18.70;99.90;;;;;;6126137;23;20512;-71
2021/09/15 05:13:20;;;;;;;20.83;16.27;;;18.80;99.90;;;;;;6156502;23;20926;-72
2021/09/15 05:15:47;;;;;;;18.17;16.47;;;18.80;99.90;;;;;;6155105;23;20717;-71
2021/09/15 05:18:14;;;;;;;19.13;17.23;;;18.70;99.90;;;;;;6156706;23;20428;-73
2021/09/15 05:20:43;;;;;;;18.90;16.63;;;18.80;99.90;;;;;;6156447;23;20871;-73
2021/09/15 05:23:10;;;;;;;16.27;14.63;;;18.80;99.90;;;;;;6156533;23;20467;-71
2021/09/15 05:25:38;;;;;;;19.80;16.00;;;18.80;99.90;;;;;;6154816;23;20393;-72
2021/09/15 05:28:05;;;;;;;21.73;17.00;;;18.80;99.90;;;;;;6155811;23;20429;-73
2021/09/15 05:30:34;;;;;;;19.23;17.33;;;18.80;99.90;;;;;;6155686;23;20403;-73
2021/09/15 05:33:02;;;;;;;20.37;18.33;;;18.80;99.90;;;;;;6155643;23;20432;-73
2021/09/15 05:35:29;;;;;;;18.83;17.13;;;18.70;99.90;;;;;;6155374;23;20787;-73
2021/09/15 05:37:57;;;;;;;18.37;16.43;;;18.70;99.90;;;;;;6156674;23;20390;-71
2021/09/15 05:40:26;;;;;;;19.20;16.43;;;18.70;99.90;;;;;;6155671;23;20396;-72
2021/09/15 05:42:53;;;;;;;25.53;17.57;;;18.70;99.90;;;;;;6155845;23;20436;-71
2021/09/15 05:45:20;;;;;;;21.10;18.30;;;18.70;99.90;;;;;;6155133;23;20805;-72
2021/09/15 05:47:49;;;;;;;17.03;15.30;;;18.70;99.90;;;;;;6155653;23;20404;-71
2021/09/15 05:50:16;;;;;;;18.77;16.87;;;18.80;99.90;;;;;;6155480;23;20396;-72
2021/09/15 05:52:43;;;;;;;20.57;17.90;;;18.80;99.90;;;;;;6156043;23;20432;-72
2021/09/15 05:55:11;;;;;;;18.67;16.73;;;18.80;99.90;;;;;;6155060;23;20397;-71
2021/09/15 05:57:38;;;;;;;18.40;16.70;;;18.80;99.90;;;;;;6155878;23;20723;-72
2021/09/15 06:00:08;;;;;;;22.90;18.10;;;18.90;99.90;;;;;;6155826;23;20747;-72
2021/09/15 06:02:35;;;;;;;19.90;17.47;;;18.90;99.90;;;;;;6155884;23;20452;-73
2021/09/15 06:05:04;;;;;;;24.40;18.20;;;18.90;99.90;;;;;;6155516;23;20392;-72
2021/09/15 06:07:31;;;;;;;21.10;19.00;;;18.90;99.90;;;;;;6155262;23;20402;-71
2021/09/15 06:09:59;;;;;;;17.70;15.90;;;18.90;99.90;;;;;;6155915;23;20400;-71
2021/09/15 06:12:26;;;;;;;23.30;16.77;;;18.90;99.90;;;;;;6155218;23;20448;-70
2021/09/15 06:14:53;;;;;;;20.40;18.27;;;19.00;99.90;;;;;;6155238;23;20516;-70
2021/09/15 06:17:20;;;;;;;20.03;18.10;;;19.00;99.90;;;;;;6155884;23;20401;-71
2021/09/15 06:19:47;;;;;;;21.50;17.67;;;19.10;99.90;;;;;;6156276;23;20444;-72
2021/09/15 06:22:17;;;;;;;24.00;19.30;;;19.20;99.90;;;;;;6155698;23;20433;-71
2021/09/15 06:24:44;;;;;;;18.90;16.90;;;19.20;99.90;;;;;;6155715;23;21006;-71
2021/09/15 06:27:11;;;;;;;19.17;17.43;;;19.20;99.90;;;;;;6154251;23;20397;-71
2021/09/15 06:29:38;;;;;;;22.60;16.67;;;19.30;99.90;;;;;;6155696;23;20873;-73
2021/09/15 06:32:06;;;;;;;18.50;16.70;;;19.30;99.90;;;;;;6155145;23;20751;-72
2021/09/15 06:34:35;;;;;;;17.20;15.40;;;19.30;99.90;;;;;;6155419;23;20906;-72
2021/09/15 06:37:02;;;;;;;20.20;17.30;;;19.30;99.90;;;;;;6155144;23;20716;-72
2021/09/15 06:39:30;;;;;;;21.87;18.23;;;19.30;99.90;;;;;;6155433;23;20434;-71
2021/09/15 06:41:57;;;;;;;19.83;17.80;;;19.20;99.90;;;;;;6155294;23;20439;-72
2021/09/15 06:44:25;;;;;;;18.23;16.17;;;19.20;99.90;;;;;;6155408;23;20786;-71
2021/09/15 06:46:52;;;;;;;18.83;17.13;;;19.30;99.90;;;;;;6154203;23;20412;-71
2021/09/15 06:49:19;;;;;;;18.17;16.37;;;19.30;99.90;;;;;;6155175;23;20389;-72
2021/09/15 06:51:46;;;;;;;17.27;15.77;;;19.20;99.90;;;;;;6154951;23;20421;-73
2021/09/15 06:54:13;;;;;;;19.03;17.03;;;19.20;99.90;;;;;;6155094;23;20393;-72
2021/09/15 06:56:42;;;;;;;17.50;15.90;;;19.20;99.90;;;;;;6154268;23;20393;-72
2021/09/15 06:59:10;;;;;;;16.47;14.87;;;19.30;99.90;;;;;;6156963;23;20429;-71
2021/09/15 07:01:37;;;;;;;18.33;16.73;;;19.40;99.90;;;;;;6155294;23;20757;-71
2021/09/15 07:04:05;;;;;;;18.67;16.77;;;19.50;99.90;;;;;;6155195;23;20428;-72
2021/09/15 07:06:33;;;;;;;16.90;15.23;;;19.50;99.90;;;;;;6154304;23;20406;-75
2021/09/15 07:09:00;;;;;;;16.53;15.03;;;19.60;99.90;;;;;;6155004;23;20860;-72
2021/09/15 07:11:28;;;;;;;18.00;16.30;;;19.60;99.90;;;;;;6155339;23;20527;-72
2021/09/15 07:14:01;;;;;;;18.70;17.00;;;19.60;99.90;;;;;;6155303;23;20859;-72
2021/09/15 07:16:28;;;;;;;17.87;16.27;;;19.60;99.90;;;;;;6154633;23;20400;-72
2021/09/15 07:18:55;;;;;;;16.27;14.63;;;19.70;99.90;;;;;;6155419;23;20761;-72
2021/09/15 07:21:22;;;;;;;17.87;16.23;;;19.80;99.90;;;;;;6155392;23;20721;-72
2021/09/15 07:23:51;;;;;;;18.20;16.40;;;19.70;99.90;;;;;;6155218;23;20382;-72
2021/09/15 07:26:18;;;;;;;21.40;16.70;;;19.70;99.90;;;;;;6154683;23;20411;-71
2021/09/15 07:28:45;;;;;;;15.93;14.53;;;19.70;99.90;;;;;;6155065;23;20398;-72
2021/09/15 07:31:14;;;;;;;18.10;15.70;;;19.80;99.90;;;;;;6154982;23;20458;-73
2021/09/15 07:33:41;;;;;;;19.47;17.57;;;19.70;99.90;;;;;;6157025;23;20397;-73
2021/09/15 07:36:10;;;;;;;19.47;17.43;;;19.70;99.90;;;;;;6156368;23;20427;-73
2021/09/15 07:38:37;;;;;;;17.23;15.60;;;19.60;99.90;;;;;;6156822;23;20397;-71
2021/09/15 07:41:04;;;;;;;20.47;16.17;;;19.60;99.90;;;;;;6157420;23;20396;-74
2021/09/15 07:43:32;;;;;;;18.30;16.67;;;19.60;99.90;;;;;;6158092;23;20428;-72
2021/09/15 07:45:59;;;;;;;21.23;18.90;;;19.50;99.90;;;;;;6156257;23;20392;-73
2021/09/15 07:48:28;;;;;;;19.10;17.33;;;19.50;99.90;;;;;;6156882;23;20398;-72
2021/09/15 07:50:55;;;;;;;19.97;18.13;;;19.50;99.90;;;;;;6157632;23;20692;-72
2021/09/15 07:53:22;;;;;;;22.03;19.83;;;19.50;99.90;;;;;;6157042;23;20810;-72
2021/09/15 07:55:50;;;;;;;20.20;18.30;;;19.40;99.90;;;;;;6155955;23;20389;-71
2021/09/15 07:58:17;;;;;;;25.13;22.80;;;19.40;99.90;;;;;;6156754;23;20401;-71
2021/09/15 08:00:44;;;;;;;22.07;20.00;;;19.40;99.90;;;;;;6156910;23;20451;-72
2021/09/15 08:03:12;;;;;;;24.07;20.67;;;19.30;99.90;;;;;;6157255;23;20428;-72
2021/09/15 08:05:40;;;;;;;28.40;23.93;;;19.30;99.90;;;;;;6156594;23;20401;-73
2021/09/15 08:08:11;;;;;;;24.80;22.20;;;19.30;99.90;;;;;;6157121;23;20393;-74
2021/09/15 08:10:39;;;;;;;22.23;20.13;;;19.30;99.90;;;;;;6156907;23;20394;-73
2021/09/15 08:13:06;;;;;;;24.90;22.60;;;19.40;99.90;;;;;;6155639;23;20442;-73
2021/09/15 08:15:33;;;;;;;21.77;19.77;;;19.40;99.90;;;;;;6155765;23;20389;-74
2021/09/15 08:18:00;;;;;;;24.77;22.13;;;19.50;99.90;;;;;;6156504;23;20878;-74
2021/09/15 08:20:28;;;;;;;23.77;21.57;;;19.70;99.90;;;;;;6156504;23;20435;-73
2021/09/15 08:22:58;;;;;;;21.63;19.43;;;19.60;99.90;;;;;;6157990;23;20464;-73
2021/09/15 08:25:25;;;;;;;23.27;21.10;;;19.70;99.90;;;;;;6156148;23;20428;-73
2021/09/15 08:27:52;;;;;;;19.70;17.90;;;19.70;99.90;;;;;;6156494;23;20488;-73
2021/09/15 08:30:19;;;;;;;20.80;18.70;;;19.70;99.90;;;;;;6156643;23;20426;-74
2021/09/15 08:32:50;;;;;;;20.87;18.77;;;19.80;99.90;;;;;;6156458;23;20971;-74
2021/09/15 08:35:17;;;;;;;20.40;18.17;;;19.80;99.90;;;;;;6155202;23;20397;-73
2021/09/15 08:37:44;;;;;;;19.87;17.80;;;19.90;99.90;;;;;;6156788;23;20433;-73
2021/09/15 08:40:13;;;;;;;19.53;17.77;;;20.00;99.90;;;;;;6156856;23;20428;-74
2021/09/15 08:42:40;;;;;;;19.53;17.67;;;20.00;99.90;;;;;;6156081;23;21010;-73
2021/09/15 08:45:11;;;;;;;26.17;23.50;;;20.00;99.90;;;;;;6156469;23;20393;-72
2021/09/15 08:47:40;;;;;;;25.87;22.90;;;19.90;99.90;;;;;;6156861;23;20862;-75
2021/09/15 08:50:09;;;;;;;22.73;20.43;;;19.80;99.90;;;;;;6156263;23;20409;-73
2021/09/15 08:52:37;;;;;;;20.83;18.93;;;19.70;99.90;;;;;;6155663;23;20746;-74
2021/09/15 08:55:05;;;;;;;22.73;20.50;;;19.80;99.90;;;;;;6155927;23;20394;-74
2021/09/15 08:57:34;;;;;;;23.53;21.10;;;19.80;99.90;;;;;;6155747;23;20397;-73
2021/09/15 09:00:02;;;;;;;26.03;23.30;;;19.80;99.90;;;;;;6156011;23;20470;-74
2021/09/15 09:02:36;;;;;;;28.07;25.33;;;19.80;99.90;;;;;;6156709;23;20430;-73
2021/09/15 09:05:04;;;;;;;25.43;22.80;;;19.80;99.90;;;;;;6157179;23;20397;-74
2021/09/15 09:07:32;;;;;;;20.70;18.70;;;19.80;99.90;;;;;;6156726;23;20393;-74
2021/09/15 09:10:06;;;;;;;30.83;25.37;;;19.70;99.90;;;;;;6157352;23;20469;-73
2021/09/15 09:12:37;;;;;;;25.43;22.87;;;19.70;99.90;;;;;;6155564;23;20844;-73
2021/09/15 09:15:16;;;;;;;27.60;24.67;;;19.80;99.90;;;;;;6155595;23;20432;-74
2021/09/15 09:17:45;;;;;;;28.53;25.60;;;19.80;99.90;;;;;;6156316;23;20400;-73
2021/09/15 09:20:14;;;;;;;27.13;24.50;;;19.60;99.90;;;;;;6156276;23;20435;-76
2021/09/15 09:23:00;;;;;;;26.03;23.63;;;19.60;99.90;;;;;;6156596;23;20429;-74
2021/09/15 09:25:29;;;;;;;30.63;26.40;;;19.70;99.90;;;;;;6155154;23;20385;-73
2021/09/15 09:27:58;;;;;;;25.20;22.70;;;19.70;99.90;;;;;;6156366;23;20385;-74
2021/09/15 09:30:36;;;;;;;27.90;25.17;;;19.60;99.90;;;;;;6155963;23;20468;-74
2021/09/15 09:33:04;;;;;;;30.17;27.20;;;19.70;99.90;;;;;;6155783;23;20430;-73
2021/09/15 09:35:43;;;;;;;29.03;26.10;;;19.60;99.90;;;;;;6155582;23;20480;-74
2021/09/15 09:38:28;;;;;;;25.60;23.00;;;19.60;99.90;;;;;;6156231;23;20388;-74
2021/09/15 09:40:58;;;;;;;27.97;24.87;;;19.60;99.90;;;;;;6154918;23;20961;-74
2021/09/15 09:43:27;;;;;;;30.33;27.23;;;19.70;99.90;;;;;;6155854;23;20401;-74
2021/09/15 09:45:54;;;;;;;29.23;25.97;;;19.70;99.90;;;;;;6155615;23;20400;-72
2021/09/15 09:48:44;;;;;;;25.43;23.00;;;19.80;99.90;;;;;;6156174;23;20389;-74
2021/09/15 09:51:38;;;;;;;28.23;25.53;;;19.90;99.90;;;;;;6155382;23;20884;-73
2021/09/15 09:54:14;;;;;;;21.23;19.40;;;19.90;99.90;;;;;;6103631;23;20421;-73
2021/09/15 09:56:43;;;;;;;27.13;24.43;;;19.80;99.90;;;;;;6155032;23;20434;-73
2021/09/15 09:59:12;;;;;;;25.93;23.30;;;19.80;99.90;;;;;;6155486;23;20472;-74
2021/09/15 10:01:43;;;;;;;29.43;26.43;;;19.80;99.90;;;;;;6155493;23;20746;-74
2021/09/15 10:04:11;;;;;;;24.67;22.23;;;19.70;99.90;;;;;;6155438;23;20399;-73
2021/09/15 10:06:39;;;;;;;24.40;22.07;;;19.70;99.90;;;;;;6155192;23;20404;-73
2021/09/15 10:09:07;;;;;;;21.90;19.77;;;19.80;99.90;;;;;;6155278;23;20515;-73
2021/09/15 10:11:36;;;;;;;23.87;21.27;;;19.80;99.90;;;;;;6154571;23;20515;-73
2021/09/15 10:14:05;;;;;;;25.73;23.10;;;19.80;99.90;;;;;;6155608;23;20771;-74
2021/09/15 10:16:41;;;;;;;24.27;21.93;;;19.80;99.90;;;;;;6154637;23;20727;-74
2021/09/15 10:19:10;;;;;;;27.00;24.27;;;19.80;99.90;;;;;;6155628;23;20397;-74
2021/09/15 10:21:38;;;;;;;29.33;26.43;;;19.70;99.90;;;;;;6154879;23;20479;-73
2021/09/15 10:24:06;;;;;;;25.33;22.47;;;19.70;99.90;;;;;;6155668;23;20385;-74
2021/09/15 10:26:38;;;;;;;23.97;21.77;;;19.80;99.90;;;;;;6154822;23;20401;-73
2021/09/15 10:29:24;;;;;;;28.37;25.53;;;19.90;99.90;;;;;;6155897;23;20415;-74
2021/09/15 10:32:04;;;;;;;26.70;24.20;;;19.80;99.90;;;;;;6153720;23;20517;-72
2021/09/15 10:34:51;;;;;;;35.00;25.87;;;19.80;99.90;;;;;;6155147;23;20393;-74
2021/09/15 10:37:52;;;;;;;25.70;22.93;;;19.90;99.90;;;;;;6153814;23;21204;-72
2021/09/15 10:40:36;;;;;;;26.57;23.87;;;19.90;99.90;;;;;;6154809;23;20969;-74
2021/09/15 10:43:05;;;;;;;26.23;23.73;;;19.90;99.90;;;;;;6155242;23;20451;-75
2021/09/15 10:45:33;;;;;;;22.30;20.13;;;19.90;99.90;;;;;;6154547;23;20693;-73
2021/09/15 10:48:14;;;;;;;30.57;27.27;;;20.00;99.90;;;;;;6155497;23;20388;-73
2021/09/15 10:50:53;;;;;;;25.27;22.83;;;19.90;99.90;;;;;;6155226;23;20735;-74
2021/09/15 10:53:22;;;;;;;24.37;21.93;;;19.90;99.90;;;;;;6155144;23;20894;-72
2021/09/15 10:55:52;;;;;;;26.67;24.00;;;19.90;99.90;;;;;;6154420;23;20476;-73
2021/09/15 10:58:22;;;;;;;25.43;23.13;;;19.90;99.90;;;;;;6155085;23;20412;-75
2021/09/15 11:00:51;;;;;;;27.23;24.40;;;19.80;99.90;;;;;;6154079;23;20528;-73
2021/09/15 11:03:25;;;;;;;28.47;25.53;;;19.70;99.90;;;;;;6155082;23;20428;-74
2021/09/15 11:05:53;;;;;;;23.20;20.97;;;19.70;99.90;;;;;;6154085;23;20392;-74
2021/09/15 11:08:40;;;;;;;23.50;21.50;;;19.70;99.90;;;;;;6157184;23;20399;-73
2021/09/15 11:11:09;;;;;;;26.87;24.23;;;19.70;99.90;;;;;;6165390;23;20505;-83
2021/09/15 11:13:54;;;;;;;24.57;22.30;;;19.70;99.90;;;;;;6173736;23;20401;-82
2021/09/15 11:16:37;;;;;;;25.53;23.00;;;19.70;99.90;;;;;;6180591;23;20435;-78
2021/09/15 11:19:08;;;;;;;25.47;22.93;;;19.80;99.90;;;;;;6183788;23;20419;-79
2021/09/15 11:21:38;;;;;;;23.33;21.23;;;19.90;99.90;;;;;;6183102;23;20432;-78
2021/09/15 11:24:13;;;;;;;24.97;22.57;;;20.00;99.90;;;;;;6183478;23;20401;-80
2021/09/15 11:26:45;;;;;;;23.87;21.53;;;20.00;99.90;;;;;;6177731;23;20436;-83
2021/09/15 11:29:14;;;;;;;28.40;25.40;;;20.10;99.90;;;;;;6171446;23;20395;-82
2021/09/15 11:31:43;;;;;;;23.30;21.20;;;20.00;99.90;;;;;;6172269;23;20741;-84
2021/09/15 11:34:12;;;;;;;24.63;22.37;;;20.00;99.90;;;;;;6172265;23;20419;-84
2021/09/15 11:36:41;;;;;;;26.00;23.30;;;20.00;99.90;;;;;;6171885;23;20431;-82
2021/09/15 11:39:09;;;;;;;29.30;26.43;;;20.00;99.90;;;;;;6172005;23;20500;-83
2021/09/15 11:41:36;;;;;;;25.13;22.93;;;19.90;99.90;;;;;;6171878;23;20405;-83
2021/09/15 11:44:03;;;;;;;28.93;26.13;;;20.00;99.90;;;;;;6173011;23;20417;-80
2021/09/15 11:46:36;;;;;;;29.10;26.00;;;19.90;99.90;;;;;;6181473;23;20865;-80
2021/09/15 11:49:05;;;;;;;37.63;33.87;;;19.90;99.90;;;;;;6183086;23;20475;-80
2021/09/15 11:51:38;;;;;;;32.67;29.30;;;19.80;99.90;;;;;;6183191;23;20454;-78
2021/09/15 11:54:09;;;;;;;35.27;31.53;;;19.80;99.90;;;;;;6183443;23;20420;-81
2021/09/15 11:56:42;;;;;;;35.50;31.67;;;19.70;99.90;;;;;;6183713;23;20421;-79
2021/09/15 11:59:11;;;;;;;36.10;32.30;;;19.70;99.90;;;;;;6184206;23;20384;-79
2021/09/15 12:01:42;;;;;;;35.17;31.93;;;19.70;99.90;;;;;;6183889;23;20428;-78
2021/09/15 12:04:11;;;;;;;31.37;28.13;;;19.70;99.90;;;;;;6183851;23;20380;-78
2021/09/15 12:06:39;;;;;;;27.50;24.80;;;19.80;99.90;;;;;;6183635;23;20404;-79
2021/09/15 12:09:08;;;;;;;33.77;30.23;;;19.80;99.90;;;;;;6183504;23;20386;-79
2021/09/15 12:11:39;;;;;;;33.57;30.03;;;19.80;99.90;;;;;;6183297;23;20460;-79
2021/09/15 12:14:07;;;;;;;38.13;34.03;;;19.80;99.90;;;;;;6183273;23;20465;-79
2021/09/15 12:16:40;;;;;;;33.57;30.30;;;19.60;99.90;;;;;;6181246;23;20432;-79
2021/09/15 12:19:15;;;;;;;34.17;30.77;;;19.60;99.90;;;;;;6174276;23;20399;-84
2021/09/15 12:21:46;;;;;;;31.17;27.90;;;19.60;99.90;;;;;;6172852;23;20388;-81
2021/09/15 12:24:15;;;;;;;30.33;27.53;;;19.60;99.90;;;;;;6173028;23;20412;-84
2021/09/15 12:26:42;;;;;;;28.27;25.70;;;19.60;99.90;;;;;;6171310;23;20454;-83
2021/09/15 12:29:11;;;;;;;30.20;27.00;;;19.70;99.90;;;;;;6172670;23;20409;-81
2021/09/15 12:31:43;;;;;;;34.23;30.80;;;19.70;99.90;;;;;;6170568;23;20425;-83
2021/09/15 12:34:11;;;;;;;36.33;32.43;;;19.70;99.90;;;;;;6171117;23;20420;-84
2021/09/15 12:36:38;;;;;;;29.53;26.50;;;19.60;99.90;;;;;;6170397;23;20432;-84
2021/09/15 12:39:16;;;;;;;32.83;29.60;;;19.60;99.90;;;;;;6173535;23;20415;-83
2021/09/15 12:41:52;;;;;;;27.63;24.90;;;19.70;99.90;;;;;;6174337;23;20417;-82
2021/09/15 12:44:24;;;;;;;26.13;23.40;;;19.70;99.90;;;;;;6171579;23;20400;-82
2021/09/15 12:46:53;;;;;;;26.77;24.10;;;19.70;99.90;;;;;;6171693;23;20460;-82
2021/09/15 12:49:31;;;;;;;27.20;24.83;;;19.70;99.90;;;;;;6172091;23;20484;-83
2021/09/15 12:52:08;;;;;;;27.17;24.37;;;19.70;99.90;;;;;;6171799;23;20575;-83
2021/09/15 12:54:37;;;;;;;23.70;21.43;;;19.80;99.90;;;;;;6171576;23;20399;-82
2021/09/15 12:57:16;;;;;;;26.73;24.20;;;19.90;99.90;;;;;;6170237;23;20425;-83
2021/09/15 12:59:43;;;;;;;30.83;27.63;;;20.00;99.90;;;;;;6172001;23;20463;-82
2021/09/15 13:02:21;;;;;;;34.80;31.20;;;19.90;99.90;;;;;;6171058;23;20404;-83
2021/09/15 13:04:49;;;;;;;30.23;27.30;;;19.90;99.90;;;;;;6170795;23;20403;-83